Time;durP1;ratioP1;P1;durP2;ratioP2;P2;SDS_P1;SDS_P2;PMS_P1;PMS_P2;Temp;Humidity;BMP_temperature;BMP_pressure;BME280_temperature;BME280_humidity;BME280_pressure;Samples;Min_cycle;Max_cycle;Signal;HPM_P1;HPM_P2
2023/06/30 00:01:28;;;;;;;;;;;16.60;99.90;;;;;;5077957;28;20051;-60
2023/06/30 00:03:54;;;;;;;32.20;19.20;;;16.60;99.90;;;;;;5070094;28;19924;-59
2023/06/30 00:06:20;;;;;;;;;;;16.60;99.90;;;;;;5077855;28;20062;-64
2023/06/30 00:08:45;;;;;;;39.13;20.60;;;16.60;99.90;;;;;;5073028;28;20007;-61
2023/06/30 00:11:11;;;;;;;39.08;19.90;;;16.60;99.90;;;;;;5080529;28;20611;-60
2023/06/30 00:13:37;;;;;;;32.97;19.25;;;16.60;99.90;;;;;;5071063;28;20052;-64
2023/06/30 00:16:02;;;;;;;36.92;20.38;;;16.70;99.90;;;;;;5076419;28;20651;-62
2023/06/30 00:18:28;;;;;;;;;;;16.70;99.90;;;;;;5058892;28;20786;-64
2023/06/30 00:20:54;;;;;;;34.95;19.33;;;16.60;99.90;;;;;;5065550;28;19917;-61
2023/06/30 00:23:20;;;;;;;;;;;16.60;99.90;;;;;;5060338;28;20348;-61
2023/06/30 00:25:46;;;;;;;35.97;20.83;;;16.60;99.90;;;;;;5063715;28;20860;-64
2023/06/30 00:28:11;;;;;;;34.22;20.25;;;16.60;99.90;;;;;;5058567;28;20202;-62
2023/06/30 00:30:37;;;;;;;;;;;16.70;99.90;;;;;;5064087;28;20561;-59
2023/06/30 00:33:03;;;;;;;37.50;20.08;;;16.70;99.90;;;;;;5059084;28;19927;-60
2023/06/30 00:35:29;;;;;;;35.50;19.80;;;16.60;99.90;;;;;;5064319;28;20258;-61
2023/06/30 00:37:55;;;;;;;40.78;21.30;;;16.60;99.90;;;;;;5057581;28;20032;-60
2023/06/30 00:40:21;;;;;;;;;;;16.60;99.90;;;;;;5064058;28;20047;-61
2023/06/30 00:42:46;;;;;;;33.58;20.13;;;16.70;99.90;;;;;;5044880;28;19974;-64
2023/06/30 00:45:12;;;;;;;41.45;23.02;;;16.60;99.90;;;;;;5063428;28;20440;-59
2023/06/30 00:47:37;;;;;;;38.45;22.42;;;16.60;99.90;;;;;;5057422;28;20036;-64
2023/06/30 00:50:04;;;;;;;44.40;24.90;;;16.70;99.90;;;;;;5059332;28;20036;-60
2023/06/30 00:52:29;;;;;;;44.83;24.42;;;16.70;99.90;;;;;;5054099;28;20029;-60
2023/06/30 00:54:55;;;;;;;;;;;16.70;99.90;;;;;;5063474;28;20041;-59
2023/06/30 00:57:21;;;;;;;52.38;27.38;;;16.60;99.90;;;;;;5059546;28;19920;-61
2023/06/30 00:59:46;;;;;;;;;;;16.60;99.90;;;;;;5066274;28;20037;-61
2023/06/30 01:02:19;;;;;;;52.67;26.00;;;16.70;99.90;;;;;;5057742;28;19916;-61
2023/06/30 01:05:08;;;;;;;49.38;26.88;;;16.70;99.90;;;;;;5066166;28;20044;-60
2023/06/30 01:07:43;;;;;;;58.25;29.90;;;16.70;99.90;;;;;;5055355;28;20043;-63
2023/06/30 01:10:14;;;;;;;65.32;31.50;;;16.70;99.90;;;;;;5062729;28;20039;-62
2023/06/30 01:12:42;;;;;;;53.70;29.30;;;16.70;99.90;;;;;;5060203;28;20048;-63
2023/06/30 01:15:08;;;;;;;48.72;27.92;;;16.70;99.90;;;;;;5061143;28;20048;-63
2023/06/30 01:17:40;;;;;;;46.85;25.52;;;16.80;99.90;;;;;;5058379;28;20064;-62
2023/06/30 01:20:09;;;;;;;47.58;27.35;;;16.80;99.90;;;;;;5057771;28;20036;-62
2023/06/30 01:22:50;;;;;;;51.55;27.60;;;16.80;99.90;;;;;;5054934;28;20321;-64
2023/06/30 01:25:22;;;;;;;51.83;28.38;;;16.70;99.90;;;;;;5062029;28;20035;-62
2023/06/30 01:27:49;;;;;;;49.90;26.65;;;16.70;99.90;;;;;;5056905;28;20040;-64
2023/06/30 01:30:15;;;;;;;51.92;29.40;;;16.70;99.90;;;;;;5061026;28;20576;-62
2023/06/30 01:32:41;;;;;;;53.47;28.67;;;16.70;99.90;;;;;;5062729;28;20487;-63
2023/06/30 01:35:07;;;;;;;62.45;31.25;;;16.70;99.90;;;;;;5059170;28;20052;-62
2023/06/30 01:37:33;;;;;;;;;;;16.70;99.90;;;;;;5060496;28;20497;-61
2023/06/30 01:40:00;;;;;;;60.92;30.92;;;16.70;99.90;;;;;;5062269;28;20350;-59
2023/06/30 01:42:27;;;;;;;58.15;31.90;;;16.70;99.90;;;;;;5061948;28;20857;-61
2023/06/30 01:44:53;;;;;;;69.20;34.30;;;16.70;99.90;;;;;;5060107;28;20025;-62
2023/06/30 01:47:19;;;;;;;62.90;34.22;;;16.70;99.90;;;;;;5063802;28;20102;-59
2023/06/30 01:49:45;;;;;;;;;;;16.70;99.90;;;;;;5058594;28;20040;-61
2023/06/30 01:52:11;;;;;;;63.63;33.08;;;16.70;99.90;;;;;;5059924;28;19912;-62
2023/06/30 01:54:36;;;;;;;;;;;16.70;99.90;;;;;;5067445;28;20040;-61
2023/06/30 01:57:02;;;;;;;58.63;30.98;;;16.70;99.90;;;;;;5052920;28;19925;-63
2023/06/30 01:59:28;;;;;;;;;;;16.70;99.90;;;;;;5061508;28;20056;-63
2023/06/30 02:01:53;;;;;;;63.78;31.67;;;16.70;99.90;;;;;;5056970;28;19929;-61
2023/06/30 02:04:19;;;;;;;;;;;16.70;99.90;;;;;;5069777;28;20045;-61
2023/06/30 02:06:44;;;;;;;58.92;30.45;;;16.70;99.90;;;;;;5055343;28;19979;-59
2023/06/30 02:09:12;;;;;;;;;;;16.70;99.90;;;;;;5059805;28;20536;-63
2023/06/30 02:11:38;;;;;;;61.40;31.63;;;16.70;99.90;;;;;;5060939;28;19920;-62
2023/06/30 02:14:03;;;;;;;;;;;16.80;99.90;;;;;;5061219;28;20475;-60
2023/06/30 02:16:29;;;;;;;47.65;27.25;;;16.70;99.90;;;;;;5062363;28;19999;-61
2023/06/30 02:18:55;;;;;;;;;;;16.80;99.90;;;;;;5057010;28;20033;-63
2023/06/30 02:21:21;;;;;;;44.53;26.30;;;16.80;99.90;;;;;;5062359;28;20373;-63
2023/06/30 02:23:48;;;;;;;44.03;25.92;;;16.70;99.90;;;;;;5056978;28;20037;-63
2023/06/30 02:26:14;;;;;;;50.40;28.27;;;16.60;99.90;;;;;;5060823;28;20071;-60
2023/06/30 02:28:39;;;;;;;47.10;26.88;;;16.60;99.90;;;;;;5057156;28;20227;-62
2023/06/30 02:31:05;;;;;;;;;;;16.60;99.90;;;;;;5058627;28;20040;-62
2023/06/30 02:33:31;;;;;;;45.42;24.50;;;16.60;99.90;;;;;;5069114;28;19924;-62
2023/06/30 02:35:57;;;;;;;44.03;24.77;;;16.60;99.90;;;;;;5053685;28;20398;-59
2023/06/30 02:38:22;;;;;;;41.90;23.75;;;16.60;99.90;;;;;;5066902;28;20211;-61
2023/06/30 02:40:48;;;;;;;;;;;16.60;99.90;;;;;;5059422;28;20024;-59
2023/06/30 02:43:14;;;;;;;38.33;22.55;;;16.60;99.90;;;;;;5056738;28;20457;-63
2023/06/30 02:45:39;;;;;;;;;;;16.60;99.90;;;;;;5061515;28;20630;-61
2023/06/30 02:48:05;;;;;;;43.50;22.90;;;16.60;99.90;;;;;;5060841;28;19921;-63
2023/06/30 02:50:33;;;;;;;;;;;16.60;99.90;;;;;;5057515;28;20041;-62
2023/06/30 02:52:59;;;;;;;40.97;23.38;;;16.60;99.90;;;;;;5066200;28;19920;-59
2023/06/30 02:55:25;;;;;;;43.10;23.33;;;16.60;99.90;;;;;;5061810;28;20129;-62
2023/06/30 02:57:51;;;;;;;;;;;16.70;99.90;;;;;;5058241;28;20036;-62
2023/06/30 03:00:17;;;;;;;40.10;20.70;;;16.70;99.90;;;;;;5061942;28;19924;-61
2023/06/30 03:02:42;;;;;;;44.22;23.52;;;16.60;99.90;;;;;;5066468;28;20043;-63
2023/06/30 03:05:09;;;;;;;;;;;16.60;99.90;;;;;;5063994;28;20041;-61
2023/06/30 03:07:35;;;;;;;40.53;21.27;;;16.60;99.90;;;;;;5057140;28;19979;-60
2023/06/30 03:10:01;;;;;;;39.53;21.98;;;16.50;99.90;;;;;;5061343;28;20037;-60
2023/06/30 03:12:26;;;;;;;;;;;16.50;99.90;;;;;;5060772;28;20044;-61
2023/06/30 03:14:52;;;;;;;31.35;16.25;;;16.50;99.90;;;;;;5060162;28;19920;-62
2023/06/30 03:17:18;;;;;;;30.35;16.35;;;16.50;99.90;;;;;;5058516;28;20032;-61
2023/06/30 03:19:44;;;;;;;27.15;16.25;;;16.50;99.90;;;;;;5061097;28;20543;-60
2023/06/30 03:22:10;;;;;;;27.08;16.50;;;16.40;99.90;;;;;;5056997;28;20941;-60
2023/06/30 03:24:35;;;;;;;;;;;16.40;99.90;;;;;;5061362;28;20135;-56
2023/06/30 03:27:01;;;;;;;21.98;13.32;;;16.40;99.90;;;;;;5055506;28;19956;-64
2023/06/30 03:29:27;;;;;;;23.73;13.57;;;16.40;99.90;;;;;;5061373;28;20040;-60
2023/06/30 03:31:53;;;;;;;;;;;16.40;99.90;;;;;;5055696;28;20125;-58
2023/06/30 03:34:18;;;;;;;23.73;13.00;;;16.40;99.90;;;;;;5074849;28;20053;-57
2023/06/30 03:36:44;;;;;;;;;;;16.30;99.90;;;;;;5053777;28;20039;-60
2023/06/30 03:39:10;;;;;;;20.83;12.93;;;16.40;99.90;;;;;;5067288;28;19999;-61
2023/06/30 03:41:35;;;;;;;22.20;13.50;;;16.30;99.90;;;;;;5058124;28;20044;-62
2023/06/30 03:44:01;;;;;;;;;;;16.30;99.90;;;;;;5060203;28;20032;-60
2023/06/30 03:46:29;;;;;;;30.88;15.55;;;16.30;99.90;;;;;;5056442;28;19920;-62
2023/06/30 03:48:55;;;;;;;;;;;16.20;99.90;;;;;;5067198;28;20039;-63
2023/06/30 03:51:20;;;;;;;44.30;16.48;;;16.20;99.90;;;;;;5056482;28;20002;-57
2023/06/30 03:53:46;;;;;;;;;;;16.20;99.90;;;;;;5066323;28;20133;-59
2023/06/30 03:56:12;;;;;;;14.50;7.47;;;16.20;99.90;;;;;;5064218;28;19924;-61
2023/06/30 03:58:38;;;;;;;25.60;8.52;;;16.20;99.90;;;;;;5064137;28;20032;-60
2023/06/30 04:01:04;;;;;;;;;;;16.10;99.90;;;;;;5063032;28;20102;-57
2023/06/30 04:03:30;;;;;;;6.45;2.53;;;16.00;99.90;;;;;;5067830;28;20572;-62
2023/06/30 04:05:56;;;;;;;9.40;2.67;;;15.80;99.90;;;;;;5061387;28;20048;-57
2023/06/30 04:08:21;;;;;;;;;;;15.80;99.90;;;;;;5063282;28;20055;-58
2023/06/30 04:10:48;;;;;;;8.00;2.20;;;15.70;99.90;;;;;;5064043;28;19923;-58
2023/06/30 04:13:14;;;;;;;1.88;0.88;;;15.70;99.90;;;;;;5059929;28;20116;-60
2023/06/30 04:15:39;;;;;;;;;;;15.70;99.90;;;;;;5058799;28;20127;-60
2023/06/30 04:18:05;;;;;;;2.22;0.32;;;15.70;99.90;;;;;;5061533;28;19969;-59
2023/06/30 04:20:30;;;;;;;;;;;15.70;99.90;;;;;;5059240;28;20087;-59
2023/06/30 04:22:56;;;;;;;2.17;0.30;;;15.70;99.90;;;;;;5061418;28;20387;-57
2023/06/30 04:25:22;;;;;;;;;;;15.60;99.90;;;;;;5066225;28;20259;-62
2023/06/30 04:27:47;;;;;;;0.95;0.40;;;15.60;99.90;;;;;;5060196;28;19928;-61
2023/06/30 04:30:13;;;;;;;;;;;15.60;99.90;;;;;;5065855;28;20036;-59
2023/06/30 04:32:38;;;;;;;0.63;0.30;;;15.60;99.90;;;;;;5057782;28;19958;-61
2023/06/30 04:35:05;;;;;;;4.78;0.50;;;15.60;99.90;;;;;;5078047;28;20032;-58
2023/06/30 04:37:30;;;;;;;0.40;0.40;;;15.60;99.90;;;;;;5057835;28;20040;-58
2023/06/30 04:39:56;;;;;;;;;;;15.60;99.90;;;;;;5073495;28;20097;-60
2023/06/30 04:42:22;;;;;;;0.25;0.25;;;15.60;99.90;;;;;;5060864;28;20545;-62
2023/06/30 04:44:48;;;;;;;;;;;15.60;99.90;;;;;;5064730;28;20056;-59
2023/06/30 04:47:16;;;;;;;1.15;0.40;;;15.60;99.90;;;;;;5058331;28;20023;-58
2023/06/30 04:49:42;;;;;;;1.10;0.30;;;15.60;99.90;;;;;;5071718;28;20403;-60
2023/06/30 04:52:08;;;;;;;1.42;0.65;;;15.50;99.90;;;;;;5057810;28;20063;-61
2023/06/30 04:54:33;;;;;;;;;;;15.50;99.90;;;;;;5070526;28;20501;-62
2023/06/30 04:56:59;;;;;;;0.20;0.20;;;15.50;99.90;;;;;;5058832;28;19921;-63
2023/06/30 04:59:24;;;;;;;;;;;15.50;99.90;;;;;;5071492;28;20036;-61
2023/06/30 05:01:50;;;;;;;0.65;0.20;;;15.50;99.90;;;;;;5058672;28;19971;-60
2023/06/30 05:04:16;;;;;;;;;;;15.50;99.90;;;;;;5073786;28;20032;-62
2023/06/30 05:06:41;;;;;;;0.52;0.35;;;15.50;99.90;;;;;;5057260;28;19971;-60
2023/06/30 05:09:07;;;;;;;;;;;15.40;99.90;;;;;;5065167;28;20143;-61
2023/06/30 05:11:32;;;;;;;0.55;0.20;;;15.40;99.90;;;;;;5061649;28;20010;-60
2023/06/30 05:13:58;;;;;;;;;;;15.40;99.90;;;;;;5059380;28;20136;-59
2023/06/30 05:16:24;;;;;;;0.73;0.30;;;15.40;99.90;;;;;;5062192;28;19943;-61
2023/06/30 05:18:49;;;;;;;2.65;0.40;;;15.40;99.90;;;;;;5070720;28;20059;-61
2023/06/30 05:21:15;;;;;;;;;;;15.40;99.90;;;;;;5062818;28;20052;-62
2023/06/30 05:23:41;;;;;;;0.65;0.22;;;15.30;99.90;;;;;;5059331;28;20629;-61
2023/06/30 05:26:06;;;;;;;;;;;15.20;99.90;;;;;;5061669;28;20761;-58
2023/06/30 05:28:34;;;;;;;0.30;0.30;;;15.20;99.90;;;;;;5057032;28;20337;-58
2023/06/30 05:30:59;;;;;;;0.70;0.30;;;15.10;99.90;;;;;;5058045;28;20040;-60
2023/06/30 05:33:25;;;;;;;;;;;15.10;99.90;;;;;;5062150;28;20406;-62
2023/06/30 05:35:51;;;;;;;0.40;0.35;;;15.10;99.90;;;;;;5061633;28;19927;-60
2023/06/30 05:38:16;;;;;;;0.30;0.30;;;15.00;99.90;;;;;;5056442;28;20044;-57
2023/06/30 05:40:42;;;;;;;;;;;15.00;99.90;;;;;;5061205;28;20036;-59
2023/06/30 05:43:07;;;;;;;0.25;0.25;;;14.90;99.90;;;;;;5058367;28;19931;-59
2023/06/30 05:45:33;;;;;;;4.15;0.30;;;14.90;99.90;;;;;;5062499;28;20458;-63
2023/06/30 05:47:58;;;;;;;;;;;14.90;99.90;;;;;;5062228;28;20760;-59
2023/06/30 05:50:25;;;;;;;0.15;0.15;;;14.80;99.90;;;;;;5061431;28;19916;-62
2023/06/30 05:52:51;;;;;;;0.20;0.20;;;14.80;99.90;;;;;;5055500;28;20048;-57
2023/06/30 05:55:16;;;;;;;;;;;14.80;99.90;;;;;;5062358;28;20759;-60
2023/06/30 05:57:42;;;;;;;3.50;0.38;;;14.90;99.90;;;;;;5060531;28;19924;-60
2023/06/30 06:00:07;;;;;;;;;;;15.00;99.90;;;;;;5060653;28;20118;-59
2023/06/30 06:02:34;;;;;;;0.20;0.20;;;15.00;99.90;;;;;;5058658;28;19927;-63
2023/06/30 06:04:59;;;;;;;0.20;0.20;;;14.90;99.90;;;;;;5067599;28;20041;-60
2023/06/30 06:07:25;;;;;;;;;;;14.90;99.90;;;;;;5055808;28;20110;-55
2023/06/30 06:09:50;;;;;;;0.52;0.20;;;14.90;99.90;;;;;;5068546;28;20027;-61
2023/06/30 06:12:16;;;;;;;;;;;14.90;99.90;;;;;;5051238;28;20119;-59
2023/06/30 06:14:42;;;;;;;2.70;0.70;;;14.80;99.90;;;;;;5056740;28;20472;-61
2023/06/30 06:17:07;;;;;;;;;;;14.90;99.90;;;;;;5053962;28;20032;-62
2023/06/30 06:19:33;;;;;;;2.20;0.90;;;14.90;99.90;;;;;;5070022;28;19916;-59
2023/06/30 06:22:00;;;;;;;;;;;14.90;99.90;;;;;;5061400;28;20621;-62
2023/06/30 06:24:25;;;;;;;0.20;0.20;;;14.70;99.90;;;;;;5060272;28;19928;-57
2023/06/30 06:26:51;;;;;;;0.98;0.50;;;14.80;99.90;;;;;;5056660;28;20056;-60
2023/06/30 06:29:21;;;;;;;;;;;14.70;99.90;;;;;;5061695;28;20036;-61
2023/06/30 06:31:50;;;;;;;0.45;0.40;;;14.60;99.90;;;;;;5057190;28;19948;-59
2023/06/30 06:34:21;;;;;;;0.52;0.32;;;14.50;99.90;;;;;;5070656;28;20052;-61
2023/06/30 06:36:47;;;;;;;0.32;0.32;;;14.60;99.90;;;;;;5053343;28;20234;-58
2023/06/30 06:39:14;;;;;;;0.60;0.52;;;14.50;99.90;;;;;;5069127;28;20408;-62
2023/06/30 06:41:40;;;;;;;1.38;0.70;;;14.50;99.90;;;;;;5057886;28;20051;-60
2023/06/30 06:44:05;;;;;;;;;;;14.40;99.90;;;;;;5058506;28;20997;-59
2023/06/30 06:46:31;;;;;;;0.57;0.38;;;14.40;99.90;;;;;;5060635;28;19920;-63
2023/06/30 06:48:56;;;;;;;;;;;14.50;99.90;;;;;;5058617;28;20385;-61
2023/06/30 06:51:23;;;;;;;0.93;0.75;;;14.40;99.90;;;;;;5060055;28;20469;-59
2023/06/30 06:53:52;;;;;;;0.50;0.50;;;14.30;99.90;;;;;;5056330;28;20040;-58
2023/06/30 06:56:17;;;;;;;3.38;0.60;;;14.30;99.90;;;;;;5059052;28;20048;-57
2023/06/30 06:58:43;;;;;;;;;;;14.40;99.90;;;;;;5058184;28;20097;-60
2023/06/30 07:01:10;;;;;;;0.75;0.40;;;14.30;99.90;;;;;;5055365;28;19948;-58
2023/06/30 07:03:35;;;;;;;0.40;0.40;;;14.30;99.90;;;;;;5069530;28;20123;-59
2023/06/30 07:06:01;;;;;;;;;;;14.30;99.90;;;;;;5064017;28;20156;-63
2023/06/30 07:08:28;;;;;;;0.43;0.43;;;14.30;99.90;;;;;;5059246;28;19920;-59
2023/06/30 07:10:55;;;;;;;0.82;0.60;;;14.30;99.90;;;;;;5061673;28;20045;-57
2023/06/30 07:13:22;;;;;;;2.85;0.50;;;14.40;99.90;;;;;;5055668;28;20043;-58
2023/06/30 07:15:48;;;;;;;0.60;0.52;;;14.30;99.90;;;;;;5062715;28;20051;-59
2023/06/30 07:18:17;;;;;;;0.30;0.30;;;14.30;99.90;;;;;;5057053;28;20090;-59
2023/06/30 07:20:44;;;;;;;0.57;0.40;;;14.30;99.90;;;;;;5061831;28;20036;-60
2023/06/30 07:23:10;;;;;;;0.38;0.38;;;14.40;99.90;;;;;;5058697;28;20487;-56
2023/06/30 07:25:35;;;;;;;;;;;14.40;99.90;;;;;;5059624;28;20048;-60
2023/06/30 07:28:02;;;;;;;0.40;0.35;;;14.40;99.90;;;;;;5057803;28;19919;-61
2023/06/30 07:30:27;;;;;;;3.17;0.70;;;14.50;99.90;;;;;;5063852;28;20053;-58
2023/06/30 07:32:56;;;;;;;;;;;14.50;99.90;;;;;;5058400;28;20036;-62
2023/06/30 07:35:22;;;;;;;1.63;0.80;;;14.50;99.90;;;;;;5073030;28;19920;-61
2023/06/30 07:37:49;;;;;;;2.47;0.95;;;14.50;99.90;;;;;;5058153;28;20044;-58
2023/06/30 07:40:15;;;;;;;1.85;1.10;;;14.40;99.90;;;;;;5065366;28;20494;-60
2023/06/30 07:42:41;;;;;;;1.55;1.00;;;14.50;99.90;;;;;;5059835;28;20036;-63
2023/06/30 07:45:11;;;;;;;;;;;14.40;99.90;;;;;;5065266;28;20063;-59
2023/06/30 07:47:37;;;;;;;1.60;1.35;;;14.40;99.90;;;;;;5058789;28;19932;-57
2023/06/30 07:50:09;;;;;;;2.72;1.90;;;14.40;99.90;;;;;;5063461;28;20068;-58
2023/06/30 07:52:35;;;;;;;2.97;1.52;;;14.30;99.90;;;;;;5060067;28;20144;-57
2023/06/30 07:55:01;;;;;;;3.53;2.40;;;14.30;99.90;;;;;;5067084;28;20117;-59
2023/06/30 07:57:27;;;;;;;;;;;14.20;99.90;;;;;;5063819;28;20086;-58
2023/06/30 07:59:52;;;;;;;5.40;2.75;;;14.10;99.90;;;;;;5064735;28;19920;-59
2023/06/30 08:02:18;;;;;;;6.43;3.88;;;14.10;99.90;;;;;;5061756;28;20072;-62
2023/06/30 08:04:43;;;;;;;10.07;4.55;;;14.10;99.90;;;;;;5079029;28;20058;-59
2023/06/30 08:07:09;;;;;;;;;;;14.00;99.90;;;;;;5062055;28;20037;-58
2023/06/30 08:09:34;;;;;;;9.27;4.50;;;14.00;99.90;;;;;;5064729;28;20284;-56
2023/06/30 08:12:00;;;;;;;14.18;5.80;;;14.00;99.90;;;;;;5066602;28;20048;-59
2023/06/30 08:14:26;;;;;;;;;;;13.90;99.90;;;;;;5063972;28;20507;-61
2023/06/30 08:16:51;;;;;;;12.48;4.95;;;13.80;99.90;;;;;;5061118;28;19923;-59
2023/06/30 08:19:18;;;;;;;7.18;4.40;;;13.90;99.90;;;;;;5064449;28;20414;-59
2023/06/30 08:21:43;;;;;;;12.98;4.78;;;13.90;99.90;;;;;;5057485;28;20098;-55
2023/06/30 08:24:09;;;;;;;;;;;13.80;99.90;;;;;;5059197;28;20048;-60
2023/06/30 08:26:35;;;;;;;5.80;3.67;;;13.80;99.90;;;;;;5062964;28;19924;-60
2023/06/30 08:29:00;;;;;;;;;;;13.90;99.90;;;;;;5065562;28;20040;-56
2023/06/30 08:31:26;;;;;;;6.45;4.20;;;13.90;99.90;;;;;;5060413;28;19921;-62
2023/06/30 08:33:51;;;;;;;;;;;13.90;99.90;;;;;;5071288;28;20548;-58
2023/06/30 08:36:17;;;;;;;10.75;4.65;;;13.90;99.90;;;;;;5064903;28;19920;-56
2023/06/30 08:38:42;;;;;;;;;;;13.90;99.90;;;;;;5056901;28;20043;-61
2023/06/30 08:41:08;;;;;;;8.38;4.63;;;13.90;99.90;;;;;;5060794;28;19944;-60
2023/06/30 08:43:36;;;;;;;10.32;4.40;;;14.00;99.90;;;;;;5068185;28;20459;-61
2023/06/30 08:46:03;;;;;;;10.40;5.40;;;14.00;99.90;;;;;;5062869;28;20539;-61
2023/06/30 08:48:31;;;;;;;10.38;4.32;;;14.00;99.90;;;;;;5062329;28;20720;-59
2023/06/30 08:50:58;;;;;;;11.85;4.60;;;14.00;99.90;;;;;;5061412;28;20110;-60
2023/06/30 08:53:27;;;;;;;19.88;6.07;;;14.10;99.90;;;;;;5056341;28;20037;-57
2023/06/30 08:55:54;;;;;;;8.95;5.70;;;14.10;99.90;;;;;;5062725;28;20048;-52
2023/06/30 08:58:20;;;;;;;9.75;5.75;;;14.10;99.90;;;;;;5063467;28;20405;-60
2023/06/30 09:00:46;;;;;;;11.20;4.80;;;14.20;99.90;;;;;;5062004;28;20047;-60
2023/06/30 09:03:12;;;;;;;;;;;14.20;99.90;;;;;;5060505;28;20032;-59
2023/06/30 09:05:40;;;;;;;8.82;4.60;;;14.20;99.90;;;;;;5069675;28;20054;-58
2023/06/30 09:08:51;;;;;;;8.13;4.63;;;14.20;99.90;;;;;;5055635;28;20044;-60
2023/06/30 09:11:18;;;;;;;9.95;4.45;;;14.20;99.90;;;;;;5056428;28;20048;-58
2023/06/30 09:13:46;;;;;;;7.40;4.35;;;14.10;99.90;;;;;;5063591;28;20039;-59
2023/06/30 09:16:17;;;;;;;8.30;4.80;;;14.10;99.90;;;;;;5062473;28;20044;-61
2023/06/30 09:18:45;;;;;;;7.03;4.05;;;14.20;99.90;;;;;;5064004;28;20101;-60
2023/06/30 09:21:11;;;;;;;7.30;3.58;;;14.30;99.90;;;;;;5061289;28;20209;-56
2023/06/30 09:23:37;;;;;;;;;;;14.30;99.90;;;;;;5056872;28;20594;-59
2023/06/30 09:26:12;;;;;;;5.90;3.70;;;14.30;99.90;;;;;;5059847;28;20443;-59
2023/06/30 09:28:39;;;;;;;7.55;3.85;;;14.30;99.90;;;;;;5061608;28;20408;-61
2023/06/30 09:31:05;;;;;;;9.35;4.72;;;14.40;99.90;;;;;;5057134;28;20529;-59
2023/06/30 09:33:33;;;;;;;;;;;14.50;99.90;;;;;;5067613;28;20071;-61
2023/06/30 09:36:00;;;;;;;9.20;3.67;;;14.50;99.90;;;;;;5063465;28;19920;-58
2023/06/30 09:38:28;;;;;;;10.68;3.85;;;14.50;99.90;;;;;;5053272;28;20794;-59
2023/06/30 09:40:54;;;;;;;10.65;3.88;;;14.50;99.90;;;;;;5056852;28;20052;-60
2023/06/30 09:43:24;;;;;;;;;;;14.50;99.90;;;;;;5057901;28;20071;-60
2023/06/30 09:46:00;;;;;;;12.40;5.80;;;14.50;99.90;;;;;;5067775;28;19955;-60
2023/06/30 09:48:35;;;;;;;9.77;5.15;;;14.50;99.90;;;;;;5061931;28;20052;-59
2023/06/30 09:51:01;;;;;;;11.40;4.75;;;14.50;99.90;;;;;;5064036;28;20448;-60
2023/06/30 09:53:36;;;;;;;;;;;14.40;99.90;;;;;;5055054;28;20044;-60
2023/06/30 09:56:02;;;;;;;19.83;4.97;;;14.40;99.90;;;;;;5050447;28;19947;-59
2023/06/30 09:58:27;;;;;;;;;;;14.40;99.90;;;;;;5059023;28;20079;-60
2023/06/30 10:00:53;;;;;;;10.93;4.70;;;14.50;99.90;;;;;;5063370;28;19924;-59
2023/06/30 10:03:18;;;;;;;;;;;14.50;99.90;;;;;;5065366;28;20039;-61
2023/06/30 10:05:45;;;;;;;7.95;4.63;;;14.40;99.90;;;;;;5059652;28;19924;-60
2023/06/30 10:08:12;;;;;;;5.68;4.40;;;14.50;99.90;;;;;;5054600;28;20071;-59
2023/06/30 10:10:41;;;;;;;15.35;5.25;;;14.40;99.90;;;;;;5065802;28;20036;-56
2023/06/30 10:13:07;;;;;;;8.10;4.43;;;14.50;99.90;;;;;;5054701;28;20640;-59
2023/06/30 10:15:34;;;;;;;11.52;4.47;;;14.50;99.90;;;;;;5068114;28;20033;-59
2023/06/30 10:18:02;;;;;;;13.52;4.32;;;14.50;99.90;;;;;;5062130;28;20585;-60
2023/06/30 10:20:29;;;;;;;10.80;4.60;;;14.50;99.90;;;;;;5064749;28;20066;-60
2023/06/30 10:22:56;;;;;;;10.02;4.30;;;14.50;99.90;;;;;;5059431;28;20044;-57
2023/06/30 10:25:26;;;;;;;11.68;4.80;;;14.40;99.90;;;;;;5062246;28;20381;-60
2023/06/30 10:27:51;;;;;;;14.43;4.88;;;14.40;99.90;;;;;;5058230;28;20602;-60
2023/06/30 10:30:17;;;;;;;;;;;14.40;99.90;;;;;;5062544;28;20040;-57
2023/06/30 10:32:43;;;;;;;11.57;5.20;;;14.30;99.90;;;;;;5058796;28;19920;-65
2023/06/30 10:35:10;;;;;;;10.77;4.40;;;14.30;99.90;;;;;;5070275;28;20040;-60
2023/06/30 10:37:36;;;;;;;14.07;4.53;;;14.40;99.90;;;;;;5057157;28;20048;-60
2023/06/30 10:40:29;;;;;;;13.63;4.45;;;14.40;99.90;;;;;;5059854;28;20062;-60
2023/06/30 10:42:56;;;;;;;16.45;4.80;;;14.50;99.90;;;;;;5055102;28;20036;-59
2023/06/30 10:45:32;;;;;;;8.40;4.10;;;14.60;99.90;;;;;;5060400;28;20488;-60
2023/06/30 10:48:08;;;;;;;10.07;4.13;;;14.70;99.90;;;;;;5056391;28;20063;-58
2023/06/30 10:50:41;;;;;;;13.95;4.90;;;14.80;99.90;;;;;;5059018;28;20040;-57
2023/06/30 10:53:07;;;;;;;14.05;4.32;;;15.10;99.90;;;;;;5054034;28;20113;-58
2023/06/30 10:55:33;;;;;;;;;;;15.30;99.90;;;;;;5057515;28;20036;-56
2023/06/30 10:58:02;;;;;;;8.38;3.80;;;15.60;99.90;;;;;;5055427;28;19920;-53
2023/06/30 11:00:31;;;;;;;9.15;4.25;;;15.80;99.90;;;;;;5057282;28;20749;-55
2023/06/30 11:02:58;;;;;;;13.88;4.50;;;15.90;99.90;;;;;;5051181;28;20135;-53
2023/06/30 11:05:32;;;;;;;5.68;3.50;;;16.10;99.90;;;;;;5054412;28;20045;-57
2023/06/30 11:08:06;;;;;;;10.38;3.47;;;16.20;99.90;;;;;;5050433;28;20045;-55
2023/06/30 11:10:32;;;;;;;6.45;3.70;;;16.20;99.90;;;;;;5056738;28;20074;-55
2023/06/30 11:12:58;;;;;;;;;;;16.40;99.90;;;;;;5053544;28;20489;-53
2023/06/30 11:15:47;;;;;;;10.10;3.78;;;16.60;99.90;;;;;;5060000;28;19928;-55
2023/06/30 11:18:20;;;;;;;8.48;3.40;;;16.50;99.90;;;;;;5049797;28;20048;-54
2023/06/30 11:21:03;;;;;;;9.18;3.95;;;16.40;99.90;;;;;;5057419;28;20233;-56
2023/06/30 11:23:32;;;;;;;7.03;4.07;;;16.40;99.90;;;;;;5056857;28;20045;-52
2023/06/30 11:26:09;;;;;;;8.25;4.10;;;16.30;99.90;;;;;;5052849;28;20037;-57
2023/06/30 11:28:36;;;;;;;6.63;3.42;;;16.40;99.90;;;;;;5056621;28;20049;-57
2023/06/30 11:31:01;;;;;;;10.75;3.92;;;16.40;99.90;;;;;;5054989;28;20053;-58
2023/06/30 11:33:27;;;;;;;;;;;16.20;99.90;;;;;;5060569;28;20051;-55
2023/06/30 11:35:53;;;;;;;11.32;3.47;;;16.30;99.90;;;;;;5068163;28;19972;-59
2023/06/30 11:38:19;;;;;;;10.80;4.38;;;16.50;99.90;;;;;;5056442;28;20719;-54
2023/06/30 11:40:46;;;;;;;9.35;4.32;;;16.40;99.90;;;;;;5060339;28;20128;-56
2023/06/30 11:43:12;;;;;;;11.30;3.53;;;16.60;99.90;;;;;;5054938;28;20101;-54
2023/06/30 11:45:38;;;;;;;8.40;3.53;;;16.90;99.90;;;;;;5059515;28;20067;-51
2023/06/30 11:48:05;;;;;;;;;;;16.90;99.90;;;;;;5052587;28;20060;-56
2023/06/30 11:50:30;;;;;;;11.18;3.92;;;16.90;99.90;;;;;;5063316;28;20531;-57
2023/06/30 11:52:56;;;;;;;8.80;3.97;;;16.80;99.90;;;;;;5056352;28;20040;-57
2023/06/30 11:55:23;;;;;;;8.98;3.72;;;16.80;99.90;;;;;;5057290;28;20048;-59
2023/06/30 11:57:50;;;;;;;13.30;4.03;;;16.80;99.90;;;;;;5057848;28;20051;-55
2023/06/30 12:00:21;;;;;;;7.47;3.08;;;16.80;99.90;;;;;;5062885;28;20119;-56
2023/06/30 12:02:48;;;;;;;10.75;3.25;;;16.90;99.90;;;;;;5049474;28;20105;-57
2023/06/30 12:05:16;;;;;;;13.05;3.60;;;16.70;99.90;;;;;;5059232;28;20043;-56
2023/06/30 12:07:42;;;;;;;6.53;2.38;;;16.60;99.90;;;;;;5058865;28;20036;-55
2023/06/30 12:10:09;;;;;;;9.13;2.72;;;16.50;99.90;;;;;;5062395;28;20117;-54
2023/06/30 12:12:36;;;;;;;12.52;2.40;;;16.30;99.90;;;;;;5052100;28;20036;-56
2023/06/30 12:15:04;;;;;;;6.63;2.92;;;16.50;99.90;;;;;;5062732;28;20044;-60
2023/06/30 12:17:29;;;;;;;5.13;2.10;;;16.60;99.90;;;;;;5063102;28;20040;-58
2023/06/30 12:19:55;;;;;;;;;;;16.70;99.90;;;;;;5066376;28;20042;-58
2023/06/30 12:22:27;;;;;;;7.65;1.83;;;16.90;99.90;;;;;;5060498;28;19917;-59
2023/06/30 12:24:58;;;;;;;7.03;2.13;;;17.10;99.90;;;;;;5061244;28;20045;-58
2023/06/30 12:27:27;;;;;;;4.72;1.85;;;17.30;99.90;;;;;;5058491;28;20048;-52
2023/06/30 12:29:54;;;;;;;7.55;1.77;;;17.40;99.90;;;;;;5060797;28;20098;-56
2023/06/30 12:32:20;;;;;;;8.18;1.88;;;17.50;99.90;;;;;;5057589;28;20298;-59
2023/06/30 12:34:46;;;;;;;20.65;2.33;;;17.40;99.90;;;;;;5077745;28;20036;-54
2023/06/30 12:37:12;;;;;;;;;;;17.30;99.90;;;;;;5058406;28;20052;-56
2023/06/30 12:39:38;;;;;;;5.63;1.75;;;17.20;99.90;;;;;;5065516;28;19930;-58
2023/06/30 12:42:04;;;;;;;3.63;1.40;;;17.30;99.90;;;;;;5056088;28;20029;-56
2023/06/30 12:44:30;;;;;;;;;;;17.50;99.90;;;;;;5063061;28;20061;-56
2023/06/30 12:47:06;;;;;;;5.88;1.85;;;17.70;99.90;;;;;;5055627;28;19925;-56
2023/06/30 12:49:33;;;;;;;5.53;1.80;;;17.60;99.90;;;;;;5073782;28;20113;-57
2023/06/30 12:51:59;;;;;;;3.70;1.35;;;17.70;99.90;;;;;;5063361;28;20047;-57
2023/06/30 12:54:25;;;;;;;;;;;17.80;99.90;;;;;;5062617;28;20033;-57
2023/06/30 12:56:53;;;;;;;7.30;1.50;;;17.60;99.90;;;;;;5059115;28;20477;-57
2023/06/30 12:59:20;;;;;;;5.05;1.42;;;17.40;99.90;;;;;;5062935;28;20036;-59
2023/06/30 13:01:47;;;;;;;27.60;2.53;;;17.30;99.90;;;;;;5061875;28;20134;-59